createdAt,value
2023-02-11T00:01:25.266Z,7.07
2023-02-11T00:03:54.436Z,6.53
2023-02-11T00:06:24.523Z,7.22
2023-02-11T00:08:53.085Z,5.83
2023-02-11T00:11:21.994Z,6.78
2023-02-11T00:13:50.282Z,6.45
2023-02-11T00:16:19.116Z,6.20
2023-02-11T00:18:46.703Z,6.00
2023-02-11T00:21:16.749Z,6.77
2023-02-11T00:23:44.574Z,7.15
2023-02-11T00:26:13.344Z,6.53
2023-02-11T00:28:40.977Z,5.43
2023-02-11T00:31:08.807Z,6.53
2023-02-11T00:33:36.540Z,5.93
2023-02-11T00:36:06.226Z,6.70
2023-02-11T00:38:35.433Z,6.68
2023-02-11T00:41:03.042Z,6.82
2023-02-11T00:43:30.721Z,5.93
2023-02-11T00:45:58.433Z,5.87
2023-02-11T00:48:26.234Z,6.78
2023-02-11T00:50:58.625Z,6.55
2023-02-11T00:53:26.311Z,6.53
2023-02-11T00:55:55.747Z,6.53
2023-02-11T00:58:23.532Z,7.20
2023-02-11T01:00:51.095Z,5.82
2023-02-11T01:03:18.688Z,6.35
2023-02-11T01:05:46.301Z,6.10
2023-02-11T01:08:13.872Z,6.80
2023-02-11T01:10:41.417Z,6.27
2023-02-11T01:13:10.516Z,6.05
2023-02-11T01:15:38.372Z,5.40
2023-02-11T01:18:06.266Z,5.45
2023-02-11T01:20:33.926Z,5.90
2023-02-11T01:23:01.569Z,5.37
2023-02-11T01:25:29.126Z,5.40
2023-02-11T01:27:56.738Z,5.40
2023-02-11T01:30:25.844Z,4.97
2023-02-11T01:32:54.442Z,5.78
2023-02-11T01:35:22.092Z,5.23
2023-02-11T01:37:49.732Z,5.25
2023-02-11T01:40:18.693Z,5.45
2023-02-11T01:42:49.369Z,5.63
2023-02-11T01:45:37.257Z,5.22
2023-02-11T01:48:06.557Z,5.23
2023-02-11T01:50:36.164Z,4.45
2023-02-11T01:53:24.088Z,5.35
2023-02-11T01:56:09.590Z,4.28
2023-02-11T01:58:39.415Z,4.35
2023-02-11T02:01:08.218Z,5.00
2023-02-11T02:03:38.824Z,4.85
2023-02-11T02:06:08.935Z,4.75
2023-02-11T02:08:40.102Z,4.70
2023-02-11T02:11:08.100Z,4.03
2023-02-11T02:13:36.218Z,4.40
2023-02-11T02:16:07.870Z,4.90
2023-02-11T02:18:43.751Z,4.93
2023-02-11T02:21:37.998Z,4.18
2023-02-11T02:24:23.437Z,3.78
2023-02-11T02:27:05.895Z,3.27
2023-02-11T02:29:50.609Z,4.07
2023-02-11T02:32:30.951Z,3.50
2023-02-11T02:35:05.500Z,3.72
2023-02-11T02:37:36.072Z,3.85
2023-02-11T02:40:05.628Z,3.67
2023-02-11T02:42:37.651Z,3.65
2023-02-11T02:45:05.568Z,4.18
2023-02-11T02:47:34.506Z,3.30
2023-02-11T02:50:02.295Z,3.40
2023-02-11T02:52:35.629Z,3.00
2023-02-11T02:55:10.153Z,3.47
2023-02-11T02:57:42.844Z,2.97
2023-02-11T03:00:15.948Z,2.95
2023-02-11T03:02:50.971Z,2.88
2023-02-11T03:05:20.500Z,3.20
2023-02-11T03:07:53.240Z,3.90
2023-02-11T03:10:22.783Z,3.63
2023-02-11T03:12:51.991Z,3.97
2023-02-11T03:15:20.483Z,3.85
2023-02-11T03:17:52.048Z,3.53
2023-02-11T03:20:21.351Z,3.80
2023-02-11T03:22:49.715Z,3.67
2023-02-11T03:25:17.995Z,4.07
2023-02-11T03:27:48.100Z,4.20
2023-02-11T03:30:17.616Z,3.60
2023-02-11T03:32:48.024Z,3.25
2023-02-11T03:35:20.163Z,3.90
2023-02-11T03:37:52.354Z,3.67
2023-02-11T03:40:21.138Z,2.75
2023-02-11T03:42:52.085Z,3.43
2023-02-11T03:45:21.585Z,2.50
2023-02-11T03:47:51.171Z,2.50
2023-02-11T03:50:21.322Z,3.30
2023-02-11T03:52:50.330Z,2.75
2023-02-11T03:55:18.776Z,2.93
2023-02-11T03:57:46.558Z,2.53
2023-02-11T04:00:14.840Z,2.58
2023-02-11T04:02:42.840Z,2.38
2023-02-11T04:05:11.931Z,2.05
2023-02-11T04:07:40.868Z,2.13
2023-02-11T04:10:08.979Z,2.15
2023-02-11T04:12:36.696Z,1.70
2023-02-11T04:15:04.515Z,2.03
2023-02-11T04:17:32.095Z,1.67
2023-02-11T04:20:03.119Z,2.03
2023-02-11T04:22:30.788Z,1.77
2023-02-11T04:24:59.919Z,1.63
2023-02-11T04:27:27.497Z,1.40
2023-02-11T04:29:55.285Z,1.35
2023-02-11T04:32:22.939Z,1.60
2023-02-11T04:34:50.622Z,1.80
2023-02-11T04:37:18.201Z,1.30
2023-02-11T04:39:46.432Z,1.60
2023-02-11T04:42:15.337Z,1.85
2023-02-11T04:44:43.002Z,1.70
2023-02-11T04:47:12.774Z,1.95
2023-02-11T04:49:40.327Z,1.85
2023-02-11T04:52:09.010Z,1.80
2023-02-11T04:54:36.682Z,1.45
2023-02-11T04:57:04.324Z,1.87
2023-02-11T04:59:33.261Z,1.50
2023-02-11T05:02:00.958Z,1.30
2023-02-11T05:04:28.593Z,1.75
2023-02-11T05:06:58.595Z,2.13
2023-02-11T05:09:26.481Z,1.60
2023-02-11T05:11:54.689Z,2.00
2023-02-11T05:14:22.320Z,1.40
2023-02-11T05:16:52.002Z,1.92
2023-02-11T05:19:19.794Z,1.90
2023-02-11T05:22:01.395Z,1.90
2023-02-11T05:24:29.690Z,2.53
2023-02-11T05:26:57.871Z,1.55
2023-02-11T05:29:25.462Z,2.17
2023-02-11T05:31:55.172Z,2.10
2023-02-11T05:34:22.859Z,2.30
2023-02-11T05:36:50.450Z,1.75
2023-02-11T05:39:18.110Z,2.13
2023-02-11T05:41:46.836Z,2.80
2023-02-11T05:44:14.445Z,2.30
2023-02-11T05:46:42.271Z,2.47
2023-02-11T05:49:11.284Z,2.40
2023-02-11T05:51:38.882Z,2.53
2023-02-11T05:54:06.656Z,2.17
2023-02-11T05:56:34.238Z,1.95
2023-02-11T05:59:01.816Z,2.50
2023-02-11T06:01:29.470Z,3.13
2023-02-11T06:03:57.195Z,3.03
2023-02-11T06:06:30.216Z,2.80
2023-02-11T06:08:57.820Z,2.72
2023-02-11T06:11:25.384Z,2.87
2023-02-11T06:13:53.312Z,2.80
2023-02-11T06:16:21.000Z,2.83
2023-02-11T06:18:48.631Z,2.63
2023-02-11T06:21:16.183Z,3.22
2023-02-11T06:23:47.565Z,2.70
2023-02-11T06:26:18.131Z,3.22
2023-02-11T06:28:46.153Z,2.40
2023-02-11T06:31:14.315Z,2.30
2023-02-11T06:33:41.957Z,2.58
2023-02-11T06:36:13.440Z,3.10
2023-02-11T06:38:41.247Z,2.33
2023-02-11T06:41:11.564Z,3.30
2023-02-11T06:43:43.541Z,2.83
2023-02-11T06:46:11.101Z,2.92
2023-02-11T06:48:38.870Z,2.77
2023-02-11T06:51:09.527Z,2.85
2023-02-11T06:53:37.839Z,3.45
2023-02-11T06:56:05.784Z,3.30
2023-02-11T06:58:34.840Z,3.20
2023-02-11T07:01:06.278Z,3.20
2023-02-11T07:03:34.800Z,2.83
2023-02-11T07:06:02.549Z,2.38
2023-02-11T07:08:30.432Z,2.75
2023-02-11T07:10:58.043Z,2.95
2023-02-11T07:13:25.774Z,2.87
2023-02-11T07:15:54.865Z,2.85
2023-02-11T07:18:22.494Z,3.15
2023-02-11T07:20:50.122Z,2.80
2023-02-11T07:23:17.768Z,3.50
2023-02-11T07:25:45.329Z,3.53
2023-02-11T07:28:12.929Z,3.42
2023-02-11T07:30:40.621Z,3.05
2023-02-11T07:33:09.496Z,3.00
2023-02-11T07:35:37.096Z,3.60
2023-02-11T07:38:07.229Z,3.40
2023-02-11T07:40:34.748Z,2.67
2023-02-11T07:43:02.948Z,3.42
2023-02-11T07:45:30.512Z,3.03
2023-02-11T07:47:58.263Z,3.03
2023-02-11T07:50:27.380Z,3.00
2023-02-11T07:52:54.992Z,3.22
2023-02-11T07:55:22.563Z,3.10
2023-02-11T07:57:50.941Z,2.60
2023-02-11T08:00:21.258Z,3.15
2023-02-11T08:02:48.934Z,3.00
2023-02-11T08:05:16.524Z,2.92
2023-02-11T08:07:46.449Z,2.83
2023-02-11T08:10:14.052Z,2.75
2023-02-11T08:12:42.483Z,2.15
2023-02-11T08:15:10.645Z,3.10
2023-02-11T08:17:38.369Z,2.97
2023-02-11T08:20:06.795Z,2.83
2023-02-11T08:22:35.027Z,3.25
2023-02-11T08:25:04.031Z,3.75
2023-02-11T08:27:32.040Z,4.80
2023-02-11T08:30:00.337Z,5.25
2023-02-11T08:32:27.935Z,5.25
2023-02-11T08:34:55.807Z,7.18
2023-02-11T08:37:24.053Z,6.95
2023-02-11T08:39:52.062Z,5.60
2023-02-11T08:42:23.833Z,4.38
2023-02-11T08:44:51.800Z,4.63
2023-02-11T08:47:19.376Z,5.07
2023-02-11T08:49:46.988Z,3.95
2023-02-11T08:52:14.667Z,4.63
2023-02-11T08:54:42.214Z,4.15
2023-02-11T08:57:10.074Z,4.22
2023-02-11T08:59:39.996Z,3.97
2023-02-11T09:02:08.449Z,3.20
2023-02-11T09:04:36.234Z,3.20
2023-02-11T09:07:04.701Z,3.50
2023-02-11T09:09:32.821Z,3.13
2023-02-11T09:12:01.546Z,3.03
2023-02-11T09:14:29.394Z,3.33
2023-02-11T09:16:58.577Z,2.93
2023-02-11T09:19:26.285Z,3.33
2023-02-11T09:21:54.355Z,2.83
2023-02-11T09:24:21.975Z,3.75
2023-02-11T09:26:50.335Z,3.97
2023-02-11T09:29:18.118Z,3.17
2023-02-11T09:31:45.752Z,2.97
2023-02-11T09:34:16.333Z,3.17
2023-02-11T09:36:44.164Z,3.38
2023-02-11T09:39:13.367Z,2.80
2023-02-11T09:41:51.775Z,2.73
2023-02-11T09:44:21.074Z,2.65
2023-02-11T09:46:51.943Z,3.03
2023-02-11T09:49:23.046Z,2.97
2023-02-11T09:51:53.679Z,2.80
2023-02-11T09:54:24.513Z,2.60
2023-02-11T09:56:52.868Z,2.88
2023-02-11T09:59:20.492Z,2.65
2023-02-11T10:01:49.263Z,2.63
2023-02-11T10:04:21.058Z,3.35
2023-02-11T10:06:50.947Z,3.13
2023-02-11T10:09:25.331Z,3.03
2023-02-11T10:11:59.322Z,2.67
2023-02-11T10:14:32.671Z,3.33
2023-02-11T10:17:05.439Z,2.35
2023-02-11T10:19:40.556Z,2.73
2023-02-11T10:22:12.836Z,3.13
2023-02-11T10:24:42.774Z,2.55
2023-02-11T10:27:15.754Z,2.63
2023-02-11T10:29:46.719Z,3.10
2023-02-11T10:32:17.607Z,2.57
2023-02-11T10:34:45.332Z,3.15
2023-02-11T10:37:14.588Z,2.33
2023-02-11T10:39:42.457Z,2.30
2023-02-11T10:42:15.947Z,2.42
2023-02-11T10:44:55.621Z,2.60
2023-02-11T10:47:24.627Z,2.20
2023-02-11T10:49:52.171Z,1.98
2023-02-11T10:52:22.834Z,2.90
2023-02-11T10:55:05.414Z,2.75
2023-02-11T10:57:35.137Z,3.30
2023-02-11T11:00:20.969Z,2.70
2023-02-11T11:02:55.258Z,2.28
2023-02-11T11:05:26.802Z,2.08
2023-02-11T11:07:57.344Z,2.20
2023-02-11T11:10:35.605Z,1.90
2023-02-11T11:13:03.563Z,1.80
2023-02-11T11:15:32.648Z,2.03
2023-02-11T11:18:22.158Z,2.17
2023-02-11T11:20:57.185Z,2.10
2023-02-11T11:23:26.943Z,2.13
2023-02-11T11:26:02.708Z,2.47
2023-02-11T11:28:32.839Z,1.83
2023-02-11T11:31:05.225Z,3.35
2023-02-11T11:33:34.999Z,7.72
2023-02-11T11:36:04.277Z,4.50
2023-02-11T11:38:34.248Z,2.40
2023-02-11T11:41:15.567Z,1.10
2023-02-11T11:43:54.841Z,0.63
2023-02-11T11:46:26.070Z,0.63
2023-02-11T11:48:55.841Z,0.90
2023-02-11T11:51:25.045Z,0.65
2023-02-11T11:53:58.095Z,0.90
2023-02-11T11:56:32.392Z,0.77
2023-02-11T11:59:01.644Z,0.90
2023-02-11T12:01:35.778Z,0.73
2023-02-11T12:04:12.155Z,0.70
2023-02-11T12:06:53.496Z,0.43
2023-02-11T12:09:25.824Z,0.40
2023-02-11T12:12:01.023Z,0.77
2023-02-11T12:14:32.305Z,0.60
2023-02-11T12:17:03.818Z,0.77
2023-02-11T12:19:37.817Z,0.60
2023-02-11T12:22:10.640Z,0.95
2023-02-11T12:24:54.550Z,1.42
2023-02-11T12:27:29.164Z,1.13
2023-02-11T12:30:03.066Z,1.02
2023-02-11T12:32:41.530Z,1.63
2023-02-11T12:35:25.232Z,1.88
2023-02-11T12:38:08.255Z,1.20
2023-02-11T12:40:41.438Z,1.10
2023-02-11T12:43:16.832Z,1.42
2023-02-11T12:46:00.380Z,1.50
2023-02-11T12:48:36.313Z,1.10
2023-02-11T12:51:08.390Z,1.10
2023-02-11T12:53:56.740Z,1.20
2023-02-11T12:56:28.164Z,0.73
2023-02-11T12:58:58.404Z,1.13
2023-02-11T13:01:28.781Z,1.23
2023-02-11T13:03:59.378Z,1.10
2023-02-11T13:06:30.216Z,0.73
2023-02-11T13:09:00.805Z,1.27
2023-02-11T13:11:39.127Z,0.60
2023-02-11T13:14:09.148Z,0.65
2023-02-11T13:16:37.750Z,0.63
2023-02-11T13:19:11.542Z,0.60
2023-02-11T13:21:45.146Z,0.60
2023-02-11T13:24:18.834Z,0.82
2023-02-11T13:26:51.234Z,0.43
2023-02-11T13:29:32.654Z,0.35
2023-02-11T13:32:07.141Z,0.47
2023-02-11T13:34:49.707Z,0.45
2023-02-11T13:37:22.051Z,0.50
2023-02-11T13:39:58.221Z,0.45
2023-02-11T13:42:30.163Z,0.55
2023-02-11T13:44:58.122Z,0.67
2023-02-11T13:47:28.038Z,0.40
2023-02-11T13:49:55.898Z,0.60
2023-02-11T13:52:25.924Z,1.40
2023-02-11T13:54:55.864Z,1.30
2023-02-11T13:57:27.213Z,0.60
2023-02-11T13:59:57.101Z,0.70
2023-02-11T14:02:44.514Z,0.50
2023-02-11T14:05:51.274Z,0.50
2023-02-11T14:08:40.849Z,1.83
2023-02-11T14:11:12.854Z,1.77
2023-02-11T14:13:55.293Z,0.63
2023-02-11T14:16:37.606Z,0.80
2023-02-11T14:19:06.784Z,1.00
2023-02-11T14:21:36.906Z,1.00
2023-02-11T14:24:23.420Z,0.80
2023-02-11T14:26:53.112Z,0.63
2023-02-11T14:29:22.807Z,0.90
2023-02-11T14:31:54.834Z,0.77
2023-02-11T14:34:32.847Z,1.33
2023-02-11T14:37:05.512Z,0.60
2023-02-11T14:39:40.911Z,0.55
2023-02-11T14:42:15.507Z,0.40
2023-02-11T14:44:43.167Z,1.65
2023-02-11T14:47:23.360Z,1.70
2023-02-11T14:49:52.292Z,2.70
2023-02-11T14:52:26.558Z,1.40
2023-02-11T14:54:58.949Z,0.90
2023-02-11T14:57:27.774Z,0.80
2023-02-11T14:59:59.019Z,1.08
2023-02-11T15:02:30.159Z,0.83
2023-02-11T15:05:14.307Z,1.20
2023-02-11T15:07:44.386Z,0.80
2023-02-11T15:10:16.956Z,0.93
2023-02-11T15:12:47.754Z,1.50
2023-02-11T15:15:16.049Z,1.17
2023-02-11T15:17:45.636Z,1.40
2023-02-11T15:20:21.192Z,0.95
2023-02-11T15:23:03.642Z,1.00
2023-02-11T15:25:34.067Z,2.53
2023-02-11T15:28:01.965Z,2.00
2023-02-11T15:30:35.106Z,2.15
2023-02-11T15:33:06.107Z,1.50
2023-02-11T15:35:35.071Z,1.50
2023-02-11T15:38:05.948Z,1.80
2023-02-11T15:40:36.318Z,1.70
2023-02-11T15:43:23.421Z,1.60
2023-02-11T15:45:56.187Z,2.00
2023-02-11T15:48:26.811Z,1.92
2023-02-11T15:50:55.691Z,1.25
2023-02-11T15:53:26.076Z,1.67
2023-02-11T15:55:56.185Z,2.08
2023-02-11T15:58:24.238Z,1.50
2023-02-11T16:00:54.893Z,2.30
2023-02-11T16:03:23.876Z,1.88
2023-02-11T16:05:53.396Z,1.77
2023-02-11T16:08:24.954Z,1.60
2023-02-11T16:10:58.446Z,2.13
2023-02-11T16:13:28.352Z,2.03
2023-02-11T16:15:57.808Z,1.65
2023-02-11T16:18:37.712Z,1.83
2023-02-11T16:21:08.766Z,1.45
2023-02-11T16:23:37.932Z,1.75
2023-02-11T16:26:13.751Z,1.60
2023-02-11T16:28:42.367Z,1.55
2023-02-11T16:31:10.080Z,1.83
2023-02-11T16:33:37.708Z,1.90
2023-02-11T16:36:11.268Z,1.17
2023-02-11T16:38:38.814Z,2.75
2023-02-11T16:41:06.669Z,10.35
2023-02-11T16:43:34.286Z,1.90
2023-02-11T16:46:02.164Z,7.53
2023-02-11T16:48:29.807Z,5.30
2023-02-11T16:50:57.747Z,5.00
2023-02-11T16:53:26.860Z,4.45
2023-02-11T16:56:09.475Z,4.23
2023-02-11T16:58:37.069Z,3.50
2023-02-11T17:01:04.763Z,3.90
2023-02-11T17:03:37.527Z,3.50
2023-02-11T17:06:06.990Z,3.58
2023-02-11T17:08:36.732Z,4.40
2023-02-11T17:11:04.813Z,4.18
2023-02-11T17:13:36.459Z,3.80
2023-02-11T17:16:04.261Z,4.00
2023-02-11T17:18:32.838Z,3.25
2023-02-11T17:21:01.310Z,3.20
2023-02-11T17:23:29.014Z,3.10
2023-02-11T17:25:58.891Z,3.05
2023-02-11T17:28:26.563Z,3.05
2023-02-11T17:30:54.533Z,2.88
2023-02-11T17:33:22.222Z,4.00
2023-02-11T17:35:50.338Z,4.45
2023-02-11T17:38:18.973Z,5.32
2023-02-11T17:40:46.665Z,4.75
2023-02-11T17:43:16.248Z,4.68
2023-02-11T17:45:43.975Z,3.93
2023-02-11T17:48:11.700Z,4.50
2023-02-11T17:50:39.261Z,4.88
2023-02-11T17:53:07.012Z,4.30
2023-02-11T17:55:34.992Z,3.78
2023-02-11T17:58:03.830Z,4.20
2023-02-11T18:00:33.091Z,3.10
2023-02-11T18:03:02.924Z,3.40
2023-02-11T18:05:34.383Z,3.80
2023-02-11T18:08:02.022Z,3.10
2023-02-11T18:10:29.742Z,3.57
2023-02-11T18:12:58.383Z,3.28
2023-02-11T18:15:25.966Z,3.50
2023-02-11T18:17:56.212Z,3.30
2023-02-11T18:20:23.825Z,3.08
2023-02-11T18:22:52.092Z,3.33
2023-02-11T18:25:19.932Z,3.92
2023-02-11T18:27:48.859Z,4.70
2023-02-11T18:30:17.709Z,4.30
2023-02-11T18:32:45.488Z,4.80
2023-02-11T18:35:15.612Z,3.50
2023-02-11T18:37:43.489Z,5.15
2023-02-11T18:40:11.972Z,4.07
2023-02-11T18:42:39.881Z,3.45
2023-02-11T18:45:09.407Z,3.17
2023-02-11T18:47:37.673Z,4.20
2023-02-11T18:50:05.422Z,3.50
2023-02-11T18:52:40.020Z,4.05
2023-02-11T18:55:10.931Z,3.67
2023-02-11T18:57:38.533Z,3.30
2023-02-11T19:00:06.628Z,3.93
2023-02-11T19:02:34.561Z,4.97
2023-02-11T19:05:02.445Z,4.63
2023-02-11T19:07:31.093Z,4.72
2023-02-11T19:10:00.932Z,4.97
2023-02-11T19:12:28.539Z,4.77
2023-02-11T19:14:57.965Z,5.20
2023-02-11T19:17:25.756Z,5.57
2023-02-11T19:19:53.304Z,5.63
2023-02-11T19:22:20.906Z,4.85
2023-02-11T19:24:52.221Z,4.90
2023-02-11T19:27:21.300Z,4.18
2023-02-11T19:29:49.072Z,4.03
2023-02-11T19:32:16.944Z,3.95
2023-02-11T19:34:44.570Z,3.72
2023-02-11T19:37:13.233Z,3.90
2023-02-11T19:39:41.123Z,4.13
2023-02-11T19:42:08.736Z,3.83
2023-02-11T19:44:37.625Z,3.30
2023-02-11T19:47:06.954Z,2.97
2023-02-11T19:49:34.876Z,2.90
2023-02-11T19:52:02.505Z,2.80
2023-02-11T19:54:30.241Z,3.00
2023-02-11T19:56:58.586Z,2.92
2023-02-11T19:59:26.145Z,2.80
2023-02-11T20:01:55.921Z,3.20
2023-02-11T20:04:25.025Z,3.60
2023-02-11T20:06:53.297Z,3.53
2023-02-11T20:09:21.757Z,4.20
2023-02-11T20:11:54.243Z,4.22
2023-02-11T20:14:21.808Z,3.50
2023-02-11T20:16:50.316Z,3.75
2023-02-11T20:19:21.241Z,4.00
2023-02-11T20:21:50.148Z,4.07
2023-02-11T20:24:18.813Z,4.30
2023-02-11T20:26:48.349Z,4.07
2023-02-11T20:29:16.444Z,4.55
2023-02-11T20:31:44.365Z,4.80
2023-02-11T20:34:13.570Z,4.00
2023-02-11T20:36:42.542Z,4.40
2023-02-11T20:39:17.256Z,4.30
2023-02-11T20:41:46.268Z,4.60
2023-02-11T20:44:14.360Z,4.60
2023-02-11T20:46:43.105Z,5.25
2023-02-11T20:49:11.711Z,5.43
2023-02-11T20:51:39.384Z,6.57
2023-02-11T20:54:08.540Z,7.88
2023-02-11T20:56:37.641Z,6.85
2023-02-11T20:59:05.765Z,6.15
2023-02-11T21:01:35.121Z,6.78
2023-02-11T21:04:04.844Z,7.10
2023-02-11T21:06:34.011Z,6.50
2023-02-11T21:09:02.065Z,6.03
2023-02-11T21:11:32.469Z,6.45
2023-02-11T21:14:00.377Z,5.90
2023-02-11T21:16:28.188Z,6.43
2023-02-11T21:18:56.947Z,5.75
2023-02-11T21:21:28.589Z,7.32
2023-02-11T21:23:56.906Z,6.38
2023-02-11T21:26:25.580Z,6.28
2023-02-11T21:28:55.218Z,5.17
2023-02-11T21:31:23.771Z,5.82
2023-02-11T21:33:53.125Z,6.85
2023-02-11T21:36:20.780Z,7.97
2023-02-11T21:38:48.750Z,7.85
2023-02-11T21:41:16.409Z,8.17
2023-02-11T21:43:44.046Z,7.90
2023-02-11T21:46:14.000Z,7.18
2023-02-11T21:48:42.452Z,5.38
2023-02-11T21:51:12.405Z,5.72
2023-02-11T21:53:40.134Z,6.23
2023-02-11T21:56:10.835Z,6.35
2023-02-11T21:58:38.865Z,5.97
2023-02-11T22:01:11.136Z,6.45
2023-02-11T22:03:40.349Z,6.18
2023-02-11T22:06:09.337Z,7.10
2023-02-11T22:08:37.080Z,7.82
2023-02-11T22:11:05.565Z,8.52
2023-02-11T22:13:34.175Z,8.32
2023-02-11T22:16:02.511Z,8.85
2023-02-11T22:18:31.174Z,9.37
2023-02-11T22:21:00.746Z,7.95
2023-02-11T22:23:28.516Z,8.25
2023-02-11T22:25:56.553Z,7.22
2023-02-11T22:28:25.394Z,5.53
2023-02-11T22:30:54.802Z,6.70
2023-02-11T22:33:22.925Z,5.95
2023-02-11T22:35:52.948Z,6.40
2023-02-11T22:38:22.070Z,6.80
2023-02-11T22:40:49.789Z,6.25
2023-02-11T22:43:17.344Z,6.50
2023-02-11T22:45:44.940Z,6.85
2023-02-11T22:48:12.591Z,6.80
2023-02-11T22:50:40.125Z,6.63
2023-02-11T22:53:07.685Z,6.97
2023-02-11T22:55:39.304Z,7.00
2023-02-11T22:58:06.874Z,7.05
2023-02-11T23:00:37.243Z,6.85
2023-02-11T23:03:05.141Z,6.47
2023-02-11T23:05:32.776Z,6.10
2023-02-11T23:08:00.365Z,6.43
2023-02-11T23:10:28.030Z,5.53
2023-02-11T23:12:58.987Z,6.30
2023-02-11T23:15:26.472Z,6.35
2023-02-11T23:17:54.507Z,6.45
2023-02-11T23:20:22.093Z,6.17
2023-02-11T23:22:49.673Z,6.32
2023-02-11T23:25:17.484Z,5.90
2023-02-11T23:27:45.020Z,6.22
2023-02-11T23:30:14.689Z,6.53
2023-02-11T23:32:43.165Z,5.70
2023-02-11T23:35:10.884Z,5.78
2023-02-11T23:37:38.483Z,5.25
2023-02-11T23:40:06.613Z,5.40
2023-02-11T23:42:34.115Z,6.43
2023-02-11T23:45:01.793Z,6.67
2023-02-11T23:47:30.786Z,6.20
2023-02-11T23:50:00.371Z,7.53
2023-02-11T23:52:27.912Z,7.68
2023-02-11T23:54:55.537Z,6.15
2023-02-11T23:57:23.414Z,5.20
2023-02-11T23:59:51.039Z,4.35
